createdAt,value
2022-10-17T00:02:13.554Z,99342.25
2022-10-17T00:04:41.342Z,99350.94
2022-10-17T00:07:09.182Z,99352.28
2022-10-17T00:09:37.163Z,99356.75
2022-10-17T00:12:05.751Z,99359.28
2022-10-17T00:14:33.733Z,99353.63
2022-10-17T00:17:01.672Z,99352.66
2022-10-17T00:19:29.680Z,99353.16
2022-10-17T00:21:57.718Z,99357.91
2022-10-17T00:24:25.645Z,99362.28
2022-10-17T00:26:53.616Z,99368.22
2022-10-17T00:29:21.399Z,99358.00
2022-10-17T00:31:49.361Z,99372.75
2022-10-17T00:34:19.465Z,99369.53
2022-10-17T00:36:47.015Z,99372.16
2022-10-17T00:39:14.661Z,99377.44
2022-10-17T00:41:42.202Z,99373.72
2022-10-17T00:44:31.619Z,99381.41
2022-10-17T00:47:10.521Z,99380.19
2022-10-17T00:49:40.574Z,99373.47
2022-10-17T00:52:23.516Z,99374.56
2022-10-17T00:55:10.809Z,99375.06
2022-10-17T00:57:40.779Z,99371.53
2022-10-17T01:00:12.020Z,99374.66
2022-10-17T01:02:40.037Z,99376.09
2022-10-17T01:05:09.759Z,99384.53
2022-10-17T01:07:41.333Z,99374.41
2022-10-17T01:10:11.091Z,99374.56
2022-10-17T01:13:01.320Z,99379.25
2022-10-17T01:16:13.745Z,99386.78
2022-10-17T01:19:28.093Z,99385.44
2022-10-17T01:22:12.312Z,99392.50
2022-10-17T01:25:24.495Z,99390.41
2022-10-17T01:28:56.831Z,99378.78
2022-10-17T01:31:45.666Z,99384.72
2022-10-17T01:34:22.661Z,99385.81
2022-10-17T01:37:34.741Z,99382.88
2022-10-17T01:40:22.574Z,99388.47
2022-10-17T01:43:08.119Z,99375.19
2022-10-17T01:46:00.756Z,99389.69
2022-10-17T01:48:37.440Z,99377.88
2022-10-17T01:51:23.172Z,99384.31
2022-10-17T01:54:13.477Z,99377.06
2022-10-17T01:56:43.770Z,99374.88
2022-10-17T01:59:29.154Z,99377.06
2022-10-17T02:01:59.374Z,99373.31
2022-10-17T02:04:27.932Z,99356.16
2022-10-17T02:06:55.294Z,99362.59
2022-10-17T02:09:27.565Z,99371.56
2022-10-17T02:12:32.381Z,99369.06
2022-10-17T02:15:33.052Z,99370.88
2022-10-17T02:18:55.276Z,99370.81
2022-10-17T02:21:37.768Z,99372.13
2022-10-17T02:24:33.774Z,99370.97
2022-10-17T02:27:24.056Z,99368.81
2022-10-17T02:30:50.834Z,99370.00
2022-10-17T02:33:39.386Z,99374.59
2022-10-17T02:36:17.673Z,99378.63
2022-10-17T02:38:46.907Z,99382.13
2022-10-17T02:41:19.915Z,99377.63
2022-10-17T02:43:51.031Z,99375.50
2022-10-17T02:46:23.825Z,99382.38
2022-10-17T02:49:14.968Z,99381.69
2022-10-17T02:52:11.068Z,99383.97
2022-10-17T02:54:59.278Z,99388.09
2022-10-17T02:58:01.231Z,99397.75
2022-10-17T03:00:31.222Z,99390.81
2022-10-17T03:02:59.271Z,99389.84
2022-10-17T03:05:29.833Z,99399.53
2022-10-17T03:07:57.694Z,99389.78
2022-10-17T03:10:51.828Z,99399.44
2022-10-17T03:13:19.872Z,99400.88
2022-10-17T03:15:47.530Z,99398.69
2022-10-17T03:18:15.146Z,99395.72
2022-10-17T03:20:45.360Z,99401.56
2022-10-17T03:23:12.898Z,99408.84
2022-10-17T03:25:42.180Z,99399.06
2022-10-17T03:28:12.276Z,99407.06
2022-10-17T03:30:40.291Z,99414.41
2022-10-17T03:33:07.849Z,99424.50
2022-10-17T03:35:40.420Z,99427.28
2022-10-17T03:38:08.677Z,99419.03
2022-10-17T03:40:37.399Z,99418.75
2022-10-17T03:43:05.302Z,99426.66
2022-10-17T03:45:33.631Z,99428.09
2022-10-17T03:48:04.475Z,99432.31
2022-10-17T03:50:34.948Z,99427.88
2022-10-17T03:53:06.301Z,99431.25
2022-10-17T03:55:33.958Z,99432.25
2022-10-17T03:58:02.602Z,99429.16
2022-10-17T04:00:30.631Z,99441.19
2022-10-17T04:02:59.232Z,99432.63
2022-10-17T04:05:27.440Z,99434.97
2022-10-17T04:07:54.953Z,99433.81
2022-10-17T04:10:32.136Z,99435.22
2022-10-17T04:12:59.691Z,99435.78
2022-10-17T04:15:29.800Z,99438.25
2022-10-17T04:17:58.121Z,99430.13
2022-10-17T04:20:27.026Z,99439.88
2022-10-17T04:22:55.323Z,99447.75
2022-10-17T04:25:29.665Z,99446.31
2022-10-17T04:27:59.943Z,99437.00
2022-10-17T04:30:28.416Z,99445.47
2022-10-17T04:32:56.506Z,99452.63
2022-10-17T04:35:24.314Z,99458.53
2022-10-17T04:38:00.188Z,99455.16
2022-10-17T04:40:28.745Z,99461.44
2022-10-17T04:42:57.667Z,99463.28
2022-10-17T04:45:33.179Z,99461.34
2022-10-17T04:48:05.555Z,99464.38
2022-10-17T04:50:33.390Z,99464.00
2022-10-17T04:53:23.132Z,99458.31
2022-10-17T04:55:51.066Z,99469.44
2022-10-17T04:58:19.753Z,99460.47
2022-10-17T05:00:47.753Z,99459.75
2022-10-17T05:03:21.741Z,99462.50
2022-10-17T05:05:49.360Z,99463.63
2022-10-17T05:08:17.599Z,99460.47
2022-10-17T05:10:46.676Z,99471.59
2022-10-17T05:13:14.945Z,99469.13
2022-10-17T05:15:42.774Z,99464.41
2022-10-17T05:18:11.765Z,99467.72
2022-10-17T05:20:42.434Z,99465.44
2022-10-17T05:23:10.878Z,99462.41
2022-10-17T05:25:42.387Z,99471.97
2022-10-17T05:28:09.855Z,99465.06
2022-10-17T05:30:38.975Z,99460.22
2022-10-17T05:33:11.793Z,99460.94
2022-10-17T05:35:40.479Z,99462.72
2022-10-17T05:38:08.263Z,99470.34
2022-10-17T05:40:38.747Z,99464.41
2022-10-17T05:43:06.677Z,99475.78
2022-10-17T05:45:34.489Z,99473.63
2022-10-17T05:48:02.287Z,99489.25
2022-10-17T05:50:29.973Z,99478.56
2022-10-17T05:53:05.582Z,99480.94
2022-10-17T05:55:38.864Z,99484.09
2022-10-17T05:58:06.953Z,99490.97
2022-10-17T06:00:38.849Z,99485.13
2022-10-17T06:03:09.021Z,99491.66
2022-10-17T06:05:38.167Z,99500.09
2022-10-17T06:08:05.913Z,99502.97
2022-10-17T06:10:36.544Z,99503.69
2022-10-17T06:13:04.802Z,99500.78
2022-10-17T06:15:32.480Z,99504.34
2022-10-17T06:18:05.761Z,99502.75
2022-10-17T06:20:33.577Z,99500.72
2022-10-17T06:23:01.703Z,99503.97
2022-10-17T06:25:52.693Z,99510.72
2022-10-17T06:28:20.740Z,99502.94
2022-10-17T06:48:02.107Z,99525.16
2022-10-17T08:25:27.108Z,99612.66
2022-10-17T08:27:54.608Z,99616.94
2022-10-17T08:30:22.047Z,99618.81
2022-10-17T08:32:49.336Z,99623.09
2022-10-17T08:35:16.885Z,99618.28
2022-10-17T08:37:44.237Z,99628.00
2022-10-17T08:40:35.473Z,99627.91
2022-10-17T08:43:43.674Z,99635.44
2022-10-17T08:46:12.333Z,99628.78
2022-10-17T08:48:47.109Z,99628.66
2022-10-17T08:51:28.344Z,99620.72
2022-10-17T08:54:20.594Z,99630.41
2022-10-17T08:56:53.646Z,99633.78
2022-10-17T08:59:28.844Z,99630.09
2022-10-17T09:02:41.968Z,99614.97
2022-10-17T09:05:33.653Z,99617.81
2022-10-17T09:08:29.184Z,99631.63
2022-10-17T09:11:33.958Z,99631.09
2022-10-17T09:14:43.268Z,99641.19
2022-10-17T09:17:52.579Z,99634.94
2022-10-17T09:20:33.675Z,99636.94
2022-10-17T09:23:13.833Z,99634.69
2022-10-17T09:25:49.434Z,99637.53
2022-10-17T09:28:35.018Z,99624.53
2022-10-17T09:31:13.245Z,99615.53
2022-10-17T09:33:54.569Z,99613.91
2022-10-17T09:36:37.679Z,99614.47
2022-10-17T09:39:13.664Z,99610.13
2022-10-17T09:41:50.684Z,99616.72
2022-10-17T09:44:23.562Z,99602.78
2022-10-17T09:47:04.626Z,99618.81
2022-10-17T09:49:43.845Z,99608.94
2022-10-17T09:52:47.727Z,99604.78
2022-10-17T09:55:25.883Z,99615.69
2022-10-17T09:57:59.339Z,99609.16
2022-10-17T10:00:35.108Z,99596.88
2022-10-17T10:03:19.218Z,99592.88
2022-10-17T10:06:14.343Z,99594.88
2022-10-17T10:09:29.773Z,99599.31
2022-10-17T10:12:09.845Z,99591.22
2022-10-17T10:14:40.384Z,99596.41
2022-10-17T10:17:36.509Z,99600.53
2022-10-17T10:20:37.613Z,99594.00
2022-10-17T10:23:18.374Z,99599.94
2022-10-17T10:26:00.436Z,99603.72
2022-10-17T10:28:36.609Z,99598.78
2022-10-17T10:31:20.354Z,99609.22
2022-10-17T10:33:50.891Z,99606.72
2022-10-17T10:36:32.018Z,99602.03
2022-10-17T10:39:03.817Z,99604.13
2022-10-17T10:41:48.494Z,99610.56
2022-10-17T10:44:22.206Z,99607.97
2022-10-17T10:47:25.488Z,99616.00
2022-10-17T10:50:34.619Z,99613.97
2022-10-17T10:53:35.626Z,99613.47
2022-10-17T10:56:37.499Z,99606.63
2022-10-17T10:59:11.036Z,99606.06
2022-10-17T11:02:03.950Z,99599.69
2022-10-17T11:05:22.896Z,99591.81
2022-10-17T11:08:08.996Z,99594.38
2022-10-17T11:11:08.272Z,99591.94
2022-10-17T11:14:06.948Z,99595.75
2022-10-17T11:17:17.364Z,99592.69
2022-10-17T11:20:21.278Z,99595.72
2022-10-17T11:23:14.709Z,99588.97
2022-10-17T11:26:22.962Z,99585.53
2022-10-17T11:29:11.979Z,99571.22
2022-10-17T11:32:16.688Z,99574.34
2022-10-17T11:35:04.485Z,99566.50
2022-10-17T11:37:50.333Z,99571.06
2022-10-17T11:40:45.068Z,99569.91
2022-10-17T11:43:41.363Z,99568.78
2022-10-17T11:46:32.513Z,99568.69
2022-10-17T11:49:20.351Z,99562.66
2022-10-17T11:52:56.381Z,99568.88
2022-10-17T11:55:40.373Z,99562.94
2022-10-17T11:59:24.475Z,99560.38
2022-10-17T12:02:27.010Z,99553.22
2022-10-17T12:06:22.895Z,99558.47
2022-10-17T12:09:49.890Z,99556.59
2022-10-17T12:12:35.401Z,99561.69
2022-10-17T12:15:25.011Z,99551.09
2022-10-17T12:18:13.692Z,99541.13
2022-10-17T12:21:18.768Z,99553.16
2022-10-17T12:24:06.435Z,99548.84
2022-10-17T12:26:40.920Z,99544.31
2022-10-17T12:29:30.834Z,99533.78
2022-10-17T12:32:36.823Z,99532.44
2022-10-17T12:35:30.850Z,99531.66
2022-10-17T12:38:19.588Z,99528.09
2022-10-17T12:40:55.695Z,99541.16
2022-10-17T12:43:45.016Z,99528.53
2022-10-17T12:46:48.194Z,99529.50
2022-10-17T12:49:48.819Z,99518.34
2022-10-17T12:52:41.606Z,99524.53
2022-10-17T12:55:19.448Z,99529.47
2022-10-17T12:58:23.953Z,99529.00
2022-10-17T13:01:22.584Z,99527.84
2022-10-17T13:03:52.962Z,99523.31
2022-10-17T13:06:29.697Z,99526.22
2022-10-17T13:09:09.313Z,99526.16
2022-10-17T13:11:41.707Z,99535.03
2022-10-17T13:14:17.704Z,99524.75
2022-10-17T13:17:04.451Z,99523.63
2022-10-17T13:19:45.746Z,99528.44
2022-10-17T13:22:31.986Z,99531.50
2022-10-17T13:25:19.576Z,99531.47
2022-10-17T13:27:49.921Z,99536.41
2022-10-17T13:30:37.251Z,99528.09
2022-10-17T13:33:34.073Z,99525.41
2022-10-17T13:36:08.803Z,99532.19
2022-10-17T13:38:40.348Z,99537.94
2022-10-17T13:44:26.601Z,99538.94
2022-10-17T13:46:55.024Z,99542.38
2022-10-17T13:49:52.910Z,99536.91
2022-10-17T13:52:29.712Z,99534.88
2022-10-17T13:55:17.896Z,99519.97
2022-10-17T13:57:45.713Z,99534.97
2022-10-17T14:00:22.861Z,99548.56
2022-10-17T14:02:50.570Z,99547.28
2022-10-17T14:05:23.374Z,99546.00
2022-10-17T14:08:22.757Z,99543.03
2022-10-17T14:10:49.202Z,99550.06
2022-10-17T14:13:24.112Z,99544.56
2022-10-17T14:15:54.891Z,99549.84
2022-10-17T14:18:35.914Z,99545.28
2022-10-17T14:24:36.413Z,99551.00
2022-10-17T14:27:35.129Z,99552.09
2022-10-17T14:30:51.729Z,99560.59
2022-10-17T14:33:31.247Z,99555.19
2022-10-17T14:36:02.189Z,99568.38
2022-10-17T14:38:30.991Z,99568.38
2022-10-17T14:44:17.554Z,99562.44
2022-10-17T14:46:50.890Z,99561.34
2022-10-17T14:49:42.935Z,99553.78
2022-10-17T14:52:18.778Z,99555.13
2022-10-17T14:54:49.933Z,99561.28
2022-10-17T14:57:45.332Z,99561.84
2022-10-17T15:00:20.112Z,99567.25
2022-10-17T15:02:50.313Z,99573.94
2022-10-17T15:05:18.513Z,99573.09
2022-10-17T15:07:46.700Z,99567.19
2022-10-17T15:10:37.080Z,99568.47
2022-10-17T15:13:26.611Z,99573.59
2022-10-17T15:15:52.674Z,99573.25
2022-10-17T15:18:20.110Z,99575.41
2022-10-17T15:20:51.994Z,99577.00
2022-10-17T15:23:27.420Z,99577.88
2022-10-17T15:25:54.773Z,99577.09
2022-10-17T15:28:22.111Z,99584.88
2022-10-17T15:30:49.745Z,99584.03
2022-10-17T15:33:17.470Z,99585.38
2022-10-17T15:35:44.788Z,99578.56
2022-10-17T15:38:18.106Z,99579.59
2022-10-17T15:40:49.018Z,99579.94
2022-10-17T15:43:19.902Z,99575.75
2022-10-17T15:45:48.202Z,99577.38
2022-10-17T15:48:55.835Z,99576.88
2022-10-17T15:51:24.217Z,99572.88
2022-10-17T15:53:51.532Z,99581.59
2022-10-17T15:56:29.604Z,99574.72
2022-10-17T15:58:58.146Z,99571.34
2022-10-17T16:01:28.922Z,99577.41
2022-10-17T16:03:56.668Z,99574.53
2022-10-17T16:06:24.838Z,99577.38
2022-10-17T16:08:52.836Z,99586.09
2022-10-17T16:11:37.199Z,99581.72
2022-10-17T16:14:11.486Z,99587.69
2022-10-17T16:16:40.116Z,99577.94
2022-10-17T16:19:10.228Z,99595.50
2022-10-17T16:21:41.022Z,99594.25
2022-10-17T16:24:12.349Z,99598.53
2022-10-17T16:26:41.263Z,99610.97
2022-10-17T16:29:12.052Z,99613.47
2022-10-17T16:31:45.598Z,99605.66
2022-10-17T16:34:16.739Z,99616.06
2022-10-17T16:36:44.050Z,99608.53
2022-10-17T16:39:11.310Z,99615.91
2022-10-17T16:41:39.800Z,99628.28
2022-10-17T16:44:14.499Z,99631.44
2022-10-17T16:46:42.164Z,99631.44
2022-10-17T16:49:10.735Z,99633.63
2022-10-17T16:52:04.581Z,99631.88
2022-10-17T16:54:33.229Z,99638.00
2022-10-17T16:57:01.929Z,99627.41
2022-10-17T16:59:29.779Z,99642.91
2022-10-17T17:01:57.169Z,99639.72
2022-10-17T17:04:24.790Z,99634.50
2022-10-17T17:06:52.346Z,99647.84
2022-10-17T17:09:19.904Z,99651.38
2022-10-17T17:11:47.486Z,99654.94
2022-10-17T17:14:15.579Z,99653.06
2022-10-17T17:16:43.510Z,99666.38
2022-10-17T17:19:16.874Z,99660.59
2022-10-17T17:21:50.173Z,99655.88
2022-10-17T17:24:23.698Z,99658.13
2022-10-17T17:26:59.140Z,99655.31
2022-10-17T17:29:27.021Z,99656.31
2022-10-17T17:31:54.848Z,99660.09
2022-10-17T17:34:22.483Z,99669.00
2022-10-17T17:36:49.935Z,99668.13
2022-10-17T17:39:17.356Z,99671.00
2022-10-17T17:41:45.904Z,99677.00
2022-10-17T17:44:16.758Z,99675.47
2022-10-17T17:46:45.712Z,99675.78
2022-10-17T17:49:14.356Z,99683.78
2022-10-17T17:51:46.695Z,99690.91
2022-10-17T17:54:15.274Z,99683.34
2022-10-17T17:56:43.199Z,99681.50
2022-10-17T17:59:13.770Z,99691.06
2022-10-17T18:01:41.662Z,99695.06
2022-10-17T18:04:16.621Z,99700.22
2022-10-17T18:06:44.519Z,99699.59
2022-10-17T18:09:12.001Z,99697.66
2022-10-17T18:11:39.513Z,99706.44
2022-10-17T18:14:12.021Z,99710.94
2022-10-17T18:16:39.782Z,99711.91
2022-10-17T18:19:10.954Z,99712.22
2022-10-17T18:21:38.464Z,99719.97
2022-10-17T18:24:07.642Z,99722.19
2022-10-17T18:26:35.283Z,99723.25
2022-10-17T18:29:04.372Z,99728.59
2022-10-17T18:31:35.666Z,99722.19
2022-10-17T18:34:05.346Z,99731.25
2022-10-17T18:36:35.089Z,99729.31
2022-10-17T18:39:04.248Z,99719.16
2022-10-17T18:41:32.465Z,99724.59
2022-10-17T18:44:03.515Z,99729.66
2022-10-17T18:46:47.846Z,99733.00
2022-10-17T18:49:23.186Z,99734.13
2022-10-17T18:51:51.726Z,99738.69
2022-10-17T18:54:22.214Z,99735.25
2022-10-17T18:56:56.247Z,99734.13
2022-10-17T18:59:28.377Z,99737.53
2022-10-17T19:01:55.690Z,99739.75
2022-10-17T19:04:26.162Z,99742.22
2022-10-17T19:06:53.465Z,99746.75
2022-10-17T19:09:20.800Z,99740.63
2022-10-17T19:11:48.076Z,99750.72
2022-10-17T19:14:15.397Z,99748.75
2022-10-17T19:16:48.294Z,99751.91
2022-10-17T19:19:25.922Z,99753.16
2022-10-17T19:21:54.059Z,99750.41
2022-10-17T19:24:27.320Z,99754.38
2022-10-17T19:27:00.439Z,99749.59
2022-10-17T19:29:33.419Z,99745.91
2022-10-17T19:32:02.493Z,99754.88
2022-10-17T19:34:29.805Z,99756.53
2022-10-17T19:36:57.868Z,99749.22
2022-10-17T19:39:26.464Z,99746.25
2022-10-17T19:41:53.825Z,99754.56
2022-10-17T19:44:21.065Z,99749.84
2022-10-17T19:46:49.191Z,99749.00
2022-10-17T19:49:16.935Z,99754.13
2022-10-17T19:51:44.993Z,99756.88
2022-10-17T19:54:13.348Z,99756.06
2022-10-17T19:56:46.434Z,99756.38
2022-10-17T19:59:17.171Z,99751.94
2022-10-17T20:01:45.448Z,99750.44
2022-10-17T20:04:17.810Z,99754.50
2022-10-17T20:06:45.289Z,99752.16
2022-10-17T20:09:16.655Z,99755.81
2022-10-17T20:11:45.490Z,99747.31
2022-10-17T20:14:12.761Z,99754.00
2022-10-17T20:16:39.963Z,99752.78
2022-10-17T20:19:12.589Z,99755.69
2022-10-17T20:21:39.890Z,99752.22
2022-10-17T20:24:13.857Z,99761.09
2022-10-17T20:26:42.902Z,99755.50
2022-10-17T20:29:20.454Z,99765.88
2022-10-17T20:31:48.892Z,99751.31
2022-10-17T20:34:19.084Z,99753.50
2022-10-17T20:36:48.615Z,99762.75
2022-10-17T20:39:19.790Z,99762.31
2022-10-17T20:41:47.918Z,99767.94
2022-10-17T20:44:15.853Z,99770.75
2022-10-17T20:47:00.759Z,99773.78
2022-10-17T20:49:32.084Z,99777.63
2022-10-17T20:52:01.062Z,99776.69
2022-10-17T20:54:28.507Z,99779.97
2022-10-17T20:56:57.799Z,99775.56
2022-10-17T20:59:28.388Z,99780.84
2022-10-17T21:01:55.968Z,99776.59
2022-10-17T21:07:10.733Z,99780.41
2022-10-17T21:09:38.204Z,99788.00
2022-10-17T21:12:05.714Z,99788.81
2022-10-17T21:14:33.628Z,99785.03
2022-10-17T21:17:04.680Z,99787.72
2022-10-17T21:19:32.889Z,99784.03
2022-10-17T21:22:06.532Z,99798.44
2022-10-17T21:24:34.180Z,99792.03
2022-10-17T21:27:01.606Z,99791.34
2022-10-17T21:29:28.838Z,99795.56
2022-10-17T21:31:56.245Z,99790.81
2022-10-17T21:34:24.915Z,99798.88
2022-10-17T21:36:53.227Z,99796.16
2022-10-17T21:39:21.878Z,99796.22
2022-10-17T21:41:49.077Z,99800.84
2022-10-17T21:44:25.774Z,99801.59
2022-10-17T21:46:54.829Z,99801.03
2022-10-17T21:49:25.646Z,99794.22
2022-10-17T21:51:53.525Z,99798.56
2022-10-17T21:54:25.866Z,99798.00
2022-10-17T21:56:53.095Z,99792.97
2022-10-17T21:59:20.263Z,99792.09
2022-10-17T22:01:47.607Z,99802.25
2022-10-17T22:04:39.743Z,99800.91
2022-10-17T22:07:07.240Z,99798.78
2022-10-17T22:09:34.585Z,99794.63
2022-10-17T22:12:01.869Z,99793.41
2022-10-17T22:14:29.300Z,99791.03
2022-10-17T22:16:56.618Z,99786.03
2022-10-17T22:19:27.528Z,99788.00
2022-10-17T22:21:55.697Z,99783.63
2022-10-17T22:24:23.902Z,99790.44
2022-10-17T22:26:52.864Z,99784.31
2022-10-17T22:29:20.816Z,99784.91
2022-10-17T22:31:48.311Z,99786.81
2022-10-17T22:34:18.346Z,99784.72
2022-10-17T22:36:47.592Z,99785.28
2022-10-17T22:39:14.842Z,99777.22
2022-10-17T22:41:42.010Z,99780.66
2022-10-17T22:44:09.392Z,99777.34
2022-10-17T22:46:41.830Z,99772.72
2022-10-17T22:49:09.063Z,99767.84
2022-10-17T22:51:36.268Z,99773.09
2022-10-17T22:54:03.927Z,99766.41
2022-10-17T22:56:31.652Z,99785.09
2022-10-17T22:58:59.644Z,99783.03
2022-10-17T23:01:27.140Z,99775.16
2022-10-17T23:03:54.559Z,99781.44
2022-10-17T23:06:23.827Z,99778.78
2022-10-17T23:08:52.167Z,99769.47
2022-10-17T23:11:20.697Z,99763.16
2022-10-17T23:13:48.317Z,99766.84
2022-10-17T23:16:15.816Z,99761.28
2022-10-17T23:18:44.103Z,99762.72
2022-10-17T23:21:11.938Z,99767.13
2022-10-17T23:23:39.257Z,99768.16
2022-10-17T23:26:11.858Z,99769.31
2022-10-17T23:28:40.802Z,99768.22
2022-10-17T23:31:19.571Z,99765.69
2022-10-17T23:33:49.934Z,99770.16
2022-10-17T23:36:20.581Z,99763.03
2022-10-17T23:38:48.904Z,99765.50
2022-10-17T23:41:17.299Z,99760.81
2022-10-17T23:43:45.032Z,99756.28
2022-10-17T23:46:12.805Z,99744.06
2022-10-17T23:48:41.566Z,99743.22
2022-10-17T23:51:10.560Z,99747.75
2022-10-17T23:53:40.176Z,99749.59
2022-10-17T23:56:10.427Z,99750.91
2022-10-17T23:58:39.614Z,99748.56
